KHVR

Havre City-County Airport

Havre, Montana, USA
METAR KHVR 231953Z AUTO 12004KT 10SM CLR 12/M01 A2996 RMK AO2 SLP158 T01221011
Observed Flight Rules
Oct-23 @ 19:53 UTC (38 minutes ago) Visual Flight Rules
Wind Visibility Clouds
120° at 4 knots 10 miles
  • Clear skies
Temperatures Readings
Current 12°C / 54°F
Dewpoint -1°C / 30°F
Humidity 41%
Altimeter 29.96" Hg
Pressure 1015.8 hPa
Elevation 787
METAR KHVR 231953Z AUTO 12004KT 10SM CLR 12/M01 A2996 RMK AO2 SLP158 T01221011
Observed Flight Rules
Oct-23 @ 19:53 UTC
(38 minutes ago)
VFR
Wind Visibility
120° at 4 knots 10 miles
Clouds
  • Clear skies
Temperature Dewpoint
12°C / 54°F -1°C / 30°F
Humidity Altimeter Pressure
41% 29.96" Hg 1015.8 hPa